sensor_id;sensor_type;location;lat;lon;timestamp;temperature;humidity
21312;DHT22;18076;52.154;10.570;2023-07-29T00:00:40;18.20;99.90
21312;DHT22;18076;52.154;10.570;2023-07-29T00:03:06;18.20;99.90
21312;DHT22;18076;52.154;10.570;2023-07-29T00:05:32;18.30;99.90
21312;DHT22;18076;52.154;10.570;2023-07-29T00:07:57;18.30;99.90
21312;DHT22;18076;52.154;10.570;2023-07-29T00:10:23;18.30;99.90
21312;DHT22;18076;52.154;10.570;2023-07-29T00:12:48;18.40;99.90
21312;DHT22;18076;52.154;10.570;2023-07-29T00:15:14;18.40;99.90
21312;DHT22;18076;52.154;10.570;2023-07-29T00:17:39;18.50;99.90
21312;DHT22;18076;52.154;10.570;2023-07-29T00:20:05;18.60;99.90
21312;DHT22;18076;52.154;10.570;2023-07-29T00:22:31;18.70;99.90
21312;DHT22;18076;52.154;10.570;2023-07-29T00:24:56;18.80;99.90
21312;DHT22;18076;52.154;10.570;2023-07-29T00:27:25;18.90;99.90
21312;DHT22;18076;52.154;10.570;2023-07-29T00:29:51;19.00;99.90
21312;DHT22;18076;52.154;10.570;2023-07-29T00:32:16;19.10;99.90
21312;DHT22;18076;52.154;10.570;2023-07-29T00:34:42;19.20;99.90
21312;DHT22;18076;52.154;10.570;2023-07-29T00:37:08;19.40;99.90
21312;DHT22;18076;52.154;10.570;2023-07-29T00:39:33;19.40;99.90
21312;DHT22;18076;52.154;10.570;2023-07-29T00:41:58;19.40;99.90
21312;DHT22;18076;52.154;10.570;2023-07-29T00:44:24;19.50;99.90
21312;DHT22;18076;52.154;10.570;2023-07-29T00:46:50;19.50;99.90
21312;DHT22;18076;52.154;10.570;2023-07-29T00:49:17;19.40;99.90
21312;DHT22;18076;52.154;10.570;2023-07-29T00:51:42;19.40;99.90
21312;DHT22;18076;52.154;10.570;2023-07-29T00:54:08;19.40;99.90
21312;DHT22;18076;52.154;10.570;2023-07-29T00:56:34;19.40;99.90
21312;DHT22;18076;52.154;10.570;2023-07-29T00:58:59;19.40;99.90
21312;DHT22;18076;52.154;10.570;2023-07-29T01:01:30;19.40;99.90
21312;DHT22;18076;52.154;10.570;2023-07-29T01:03:56;19.30;99.90
21312;DHT22;18076;52.154;10.570;2023-07-29T01:06:38;19.30;99.90
21312;DHT22;18076;52.154;10.570;2023-07-29T01:09:08;19.20;99.90
21312;DHT22;18076;52.154;10.570;2023-07-29T01:11:41;19.10;99.90
21312;DHT22;18076;52.154;10.570;2023-07-29T01:14:34;19.10;99.90
21312;DHT22;18076;52.154;10.570;2023-07-29T01:17:03;19.10;99.90
21312;DHT22;18076;52.154;10.570;2023-07-29T01:22:14;19.00;99.90
21312;DHT22;18076;52.154;10.570;2023-07-29T01:24:41;18.90;99.90
21312;DHT22;18076;52.154;10.570;2023-07-29T01:27:06;19.00;99.90
21312;DHT22;18076;52.154;10.570;2023-07-29T01:29:32;18.90;99.90
21312;DHT22;18076;52.154;10.570;2023-07-29T01:32:01;18.80;99.90
21312;DHT22;18076;52.154;10.570;2023-07-29T01:34:29;18.90;99.90
21312;DHT22;18076;52.154;10.570;2023-07-29T01:36:57;18.80;99.90
21312;DHT22;18076;52.154;10.570;2023-07-29T01:39:25;18.80;99.90
21312;DHT22;18076;52.154;10.570;2023-07-29T01:41:51;18.70;99.90
21312;DHT22;18076;52.154;10.570;2023-07-29T01:44:17;18.60;99.90
21312;DHT22;18076;52.154;10.570;2023-07-29T01:46:44;18.50;99.90
21312;DHT22;18076;52.154;10.570;2023-07-29T01:49:09;18.50;99.90
21312;DHT22;18076;52.154;10.570;2023-07-29T01:51:35;18.40;99.90
21312;DHT22;18076;52.154;10.570;2023-07-29T01:54:00;18.30;99.90
21312;DHT22;18076;52.154;10.570;2023-07-29T01:56:26;18.30;99.90
21312;DHT22;18076;52.154;10.570;2023-07-29T01:58:51;18.30;99.90
21312;DHT22;18076;52.154;10.570;2023-07-29T02:01:17;18.30;99.90
21312;DHT22;18076;52.154;10.570;2023-07-29T02:03:43;18.30;99.90
21312;DHT22;18076;52.154;10.570;2023-07-29T02:06:08;18.20;99.90
21312;DHT22;18076;52.154;10.570;2023-07-29T02:08:34;18.20;99.90
21312;DHT22;18076;52.154;10.570;2023-07-29T02:11:00;18.10;99.90
21312;DHT22;18076;52.154;10.570;2023-07-29T02:13:26;18.00;99.90
21312;DHT22;18076;52.154;10.570;2023-07-29T02:15:52;17.90;99.90
21312;DHT22;18076;52.154;10.570;2023-07-29T02:18:17;18.00;99.90
21312;DHT22;18076;52.154;10.570;2023-07-29T02:20:43;18.00;99.90
21312;DHT22;18076;52.154;10.570;2023-07-29T02:23:14;18.10;99.90
21312;DHT22;18076;52.154;10.570;2023-07-29T02:25:40;18.10;99.90
21312;DHT22;18076;52.154;10.570;2023-07-29T02:28:05;18.00;99.90
21312;DHT22;18076;52.154;10.570;2023-07-29T02:30:31;18.00;99.90
21312;DHT22;18076;52.154;10.570;2023-07-29T02:32:56;17.90;99.90
21312;DHT22;18076;52.154;10.570;2023-07-29T02:35:22;17.90;99.90
21312;DHT22;18076;52.154;10.570;2023-07-29T02:37:47;17.90;99.90
21312;DHT22;18076;52.154;10.570;2023-07-29T02:40:13;17.90;99.90
21312;DHT22;18076;52.154;10.570;2023-07-29T02:42:38;17.90;99.90
21312;DHT22;18076;52.154;10.570;2023-07-29T02:45:04;17.90;99.90
21312;DHT22;18076;52.154;10.570;2023-07-29T02:47:30;17.90;99.90
21312;DHT22;18076;52.154;10.570;2023-07-29T02:49:55;17.90;99.90
21312;DHT22;18076;52.154;10.570;2023-07-29T02:52:21;17.90;99.90
21312;DHT22;18076;52.154;10.570;2023-07-29T02:54:46;17.90;99.90
21312;DHT22;18076;52.154;10.570;2023-07-29T02:57:13;17.80;99.90
21312;DHT22;18076;52.154;10.570;2023-07-29T02:59:38;17.80;99.90
21312;DHT22;18076;52.154;10.570;2023-07-29T03:02:04;17.80;99.90
21312;DHT22;18076;52.154;10.570;2023-07-29T03:04:30;17.80;99.90
21312;DHT22;18076;52.154;10.570;2023-07-29T03:06:55;17.80;99.90
21312;DHT22;18076;52.154;10.570;2023-07-29T03:09:21;17.70;99.90
21312;DHT22;18076;52.154;10.570;2023-07-29T03:11:46;17.60;99.90
21312;DHT22;18076;52.154;10.570;2023-07-29T03:14:12;17.60;99.90
21312;DHT22;18076;52.154;10.570;2023-07-29T03:16:38;17.70;99.90
21312;DHT22;18076;52.154;10.570;2023-07-29T03:19:03;17.80;99.90
21312;DHT22;18076;52.154;10.570;2023-07-29T03:21:30;17.90;99.90
21312;DHT22;18076;52.154;10.570;2023-07-29T03:23:55;18.00;99.90
21312;DHT22;18076;52.154;10.570;2023-07-29T03:26:21;18.10;99.90
21312;DHT22;18076;52.154;10.570;2023-07-29T03:28:46;18.10;99.90
21312;DHT22;18076;52.154;10.570;2023-07-29T03:31:12;18.30;99.90
21312;DHT22;18076;52.154;10.570;2023-07-29T03:33:37;18.40;99.90
21312;DHT22;18076;52.154;10.570;2023-07-29T03:36:03;18.50;99.90
21312;DHT22;18076;52.154;10.570;2023-07-29T03:38:29;18.40;99.90
21312;DHT22;18076;52.154;10.570;2023-07-29T03:40:54;18.50;99.90
21312;DHT22;18076;52.154;10.570;2023-07-29T03:43:20;18.60;99.90
21312;DHT22;18076;52.154;10.570;2023-07-29T03:45:45;18.60;99.90
21312;DHT22;18076;52.154;10.570;2023-07-29T03:48:11;18.60;99.90
21312;DHT22;18076;52.154;10.570;2023-07-29T03:50:36;18.60;99.90
21312;DHT22;18076;52.154;10.570;2023-07-29T03:53:02;18.70;99.90
21312;DHT22;18076;52.154;10.570;2023-07-29T03:55:28;18.70;99.90
21312;DHT22;18076;52.154;10.570;2023-07-29T03:57:58;18.60;99.90
21312;DHT22;18076;52.154;10.570;2023-07-29T04:00:24;18.60;99.90
21312;DHT22;18076;52.154;10.570;2023-07-29T04:02:50;18.60;99.90
21312;DHT22;18076;52.154;10.570;2023-07-29T04:05:16;18.60;99.90
21312;DHT22;18076;52.154;10.570;2023-07-29T04:07:41;18.70;99.90
21312;DHT22;18076;52.154;10.570;2023-07-29T04:10:07;18.70;99.90
21312;DHT22;18076;52.154;10.570;2023-07-29T04:12:32;18.80;99.90
21312;DHT22;18076;52.154;10.570;2023-07-29T04:14:58;18.80;99.90
21312;DHT22;18076;52.154;10.570;2023-07-29T04:17:23;18.80;99.90
21312;DHT22;18076;52.154;10.570;2023-07-29T04:19:49;18.80;99.90
21312;DHT22;18076;52.154;10.570;2023-07-29T04:22:15;18.90;99.90
21312;DHT22;18076;52.154;10.570;2023-07-29T04:24:41;19.00;99.90
21312;DHT22;18076;52.154;10.570;2023-07-29T04:27:06;18.90;99.90
21312;DHT22;18076;52.154;10.570;2023-07-29T04:29:32;19.00;99.90
21312;DHT22;18076;52.154;10.570;2023-07-29T04:31:57;19.10;99.90
21312;DHT22;18076;52.154;10.570;2023-07-29T04:34:23;19.10;99.90
21312;DHT22;18076;52.154;10.570;2023-07-29T04:36:48;19.20;99.90
21312;DHT22;18076;52.154;10.570;2023-07-29T04:39:14;19.20;99.90
21312;DHT22;18076;52.154;10.570;2023-07-29T04:41:40;19.30;99.90
21312;DHT22;18076;52.154;10.570;2023-07-29T04:44:05;19.50;99.90
21312;DHT22;18076;52.154;10.570;2023-07-29T04:46:31;19.60;99.90
21312;DHT22;18076;52.154;10.570;2023-07-29T04:48:56;19.70;99.90
21312;DHT22;18076;52.154;10.570;2023-07-29T04:51:22;19.80;99.90
21312;DHT22;18076;52.154;10.570;2023-07-29T04:53:47;19.80;99.90
21312;DHT22;18076;52.154;10.570;2023-07-29T04:56:13;19.80;99.90
21312;DHT22;18076;52.154;10.570;2023-07-29T04:58:39;19.80;99.90
21312;DHT22;18076;52.154;10.570;2023-07-29T05:01:06;19.70;99.90
21312;DHT22;18076;52.154;10.570;2023-07-29T05:03:31;19.70;99.90
21312;DHT22;18076;52.154;10.570;2023-07-29T05:05:58;19.70;99.90
21312;DHT22;18076;52.154;10.570;2023-07-29T05:08:23;19.70;99.90
21312;DHT22;18076;52.154;10.570;2023-07-29T05:10:49;19.70;99.90
21312;DHT22;18076;52.154;10.570;2023-07-29T05:13:15;19.60;99.90
21312;DHT22;18076;52.154;10.570;2023-07-29T05:15:41;19.60;99.90
21312;DHT22;18076;52.154;10.570;2023-07-29T05:18:06;19.60;99.90
21312;DHT22;18076;52.154;10.570;2023-07-29T05:20:32;19.70;99.90
21312;DHT22;18076;52.154;10.570;2023-07-29T05:22:57;19.70;99.90
21312;DHT22;18076;52.154;10.570;2023-07-29T05:25:23;19.80;99.90
21312;DHT22;18076;52.154;10.570;2023-07-29T05:27:48;19.90;99.90
21312;DHT22;18076;52.154;10.570;2023-07-29T05:30:14;19.90;99.90
21312;DHT22;18076;52.154;10.570;2023-07-29T05:32:39;20.00;99.90
21312;DHT22;18076;52.154;10.570;2023-07-29T05:35:05;20.00;99.90
21312;DHT22;18076;52.154;10.570;2023-07-29T05:37:31;20.10;99.90
21312;DHT22;18076;52.154;10.570;2023-07-29T05:39:56;20.10;99.90
21312;DHT22;18076;52.154;10.570;2023-07-29T05:42:22;20.20;99.90
21312;DHT22;18076;52.154;10.570;2023-07-29T05:44:47;20.30;99.90
21312;DHT22;18076;52.154;10.570;2023-07-29T05:47:13;20.30;99.90
21312;DHT22;18076;52.154;10.570;2023-07-29T05:49:38;20.40;99.90
21312;DHT22;18076;52.154;10.570;2023-07-29T05:52:04;20.40;99.90
21312;DHT22;18076;52.154;10.570;2023-07-29T05:54:30;20.40;99.90
21312;DHT22;18076;52.154;10.570;2023-07-29T05:56:55;20.30;99.90
21312;DHT22;18076;52.154;10.570;2023-07-29T05:59:21;20.30;99.90
21312;DHT22;18076;52.154;10.570;2023-07-29T06:01:46;20.20;99.90
21312;DHT22;18076;52.154;10.570;2023-07-29T06:04:12;20.10;99.90
21312;DHT22;18076;52.154;10.570;2023-07-29T06:06:37;20.00;99.90
21312;DHT22;18076;52.154;10.570;2023-07-29T06:09:03;19.80;99.90
21312;DHT22;18076;52.154;10.570;2023-07-29T06:11:28;19.70;99.90
21312;DHT22;18076;52.154;10.570;2023-07-29T06:13:54;19.50;99.90
21312;DHT22;18076;52.154;10.570;2023-07-29T06:16:19;19.40;99.90
21312;DHT22;18076;52.154;10.570;2023-07-29T06:18:45;19.30;99.90
21312;DHT22;18076;52.154;10.570;2023-07-29T06:21:11;19.30;99.90
21312;DHT22;18076;52.154;10.570;2023-07-29T06:23:42;19.20;99.90
21312;DHT22;18076;52.154;10.570;2023-07-29T06:26:08;19.20;99.90
21312;DHT22;18076;52.154;10.570;2023-07-29T06:28:33;19.20;99.90
21312;DHT22;18076;52.154;10.570;2023-07-29T06:30:59;19.20;99.90
21312;DHT22;18076;52.154;10.570;2023-07-29T06:33:25;19.20;99.90
21312;DHT22;18076;52.154;10.570;2023-07-29T06:35:50;19.00;99.90
21312;DHT22;18076;52.154;10.570;2023-07-29T06:38:16;19.00;99.90
21312;DHT22;18076;52.154;10.570;2023-07-29T06:40:47;19.00;99.90
21312;DHT22;18076;52.154;10.570;2023-07-29T06:43:12;19.00;99.90
21312;DHT22;18076;52.154;10.570;2023-07-29T06:45:38;19.00;99.90
21312;DHT22;18076;52.154;10.570;2023-07-29T06:48:03;19.00;99.90
21312;DHT22;18076;52.154;10.570;2023-07-29T06:50:29;19.00;99.90
21312;DHT22;18076;52.154;10.570;2023-07-29T06:52:54;19.00;99.90
21312;DHT22;18076;52.154;10.570;2023-07-29T06:55:20;19.00;99.90
21312;DHT22;18076;52.154;10.570;2023-07-29T06:57:45;19.10;99.90
21312;DHT22;18076;52.154;10.570;2023-07-29T07:00:11;19.00;99.90
21312;DHT22;18076;52.154;10.570;2023-07-29T07:02:36;18.90;99.90
21312;DHT22;18076;52.154;10.570;2023-07-29T07:05:02;18.90;99.90
21312;DHT22;18076;52.154;10.570;2023-07-29T07:07:28;18.80;99.90
21312;DHT22;18076;52.154;10.570;2023-07-29T07:09:53;18.80;99.90
21312;DHT22;18076;52.154;10.570;2023-07-29T07:12:19;18.70;99.90
21312;DHT22;18076;52.154;10.570;2023-07-29T07:14:44;18.70;99.90
21312;DHT22;18076;52.154;10.570;2023-07-29T07:17:10;18.70;99.90
21312;DHT22;18076;52.154;10.570;2023-07-29T07:19:35;18.70;99.90
21312;DHT22;18076;52.154;10.570;2023-07-29T07:22:01;18.80;99.90
21312;DHT22;18076;52.154;10.570;2023-07-29T07:24:26;18.90;99.90
21312;DHT22;18076;52.154;10.570;2023-07-29T07:26:52;18.90;99.90
21312;DHT22;18076;52.154;10.570;2023-07-29T07:29:17;19.10;99.90
21312;DHT22;18076;52.154;10.570;2023-07-29T07:31:48;19.20;99.90
21312;DHT22;18076;52.154;10.570;2023-07-29T07:34:14;19.30;99.90
21312;DHT22;18076;52.154;10.570;2023-07-29T07:36:40;19.50;99.90
21312;DHT22;18076;52.154;10.570;2023-07-29T07:39:06;19.60;99.90
21312;DHT22;18076;52.154;10.570;2023-07-29T07:41:31;19.70;99.90
21312;DHT22;18076;52.154;10.570;2023-07-29T07:43:57;19.80;99.90
21312;DHT22;18076;52.154;10.570;2023-07-29T07:46:22;19.90;99.90
21312;DHT22;18076;52.154;10.570;2023-07-29T07:48:48;20.00;99.90
21312;DHT22;18076;52.154;10.570;2023-07-29T07:51:13;20.20;99.90
21312;DHT22;18076;52.154;10.570;2023-07-29T07:53:39;20.20;99.90
21312;DHT22;18076;52.154;10.570;2023-07-29T07:56:05;20.30;99.90
21312;DHT22;18076;52.154;10.570;2023-07-29T07:58:31;20.20;99.90
21312;DHT22;18076;52.154;10.570;2023-07-29T08:01:03;20.20;99.90
21312;DHT22;18076;52.154;10.570;2023-07-29T08:03:29;20.20;99.90
21312;DHT22;18076;52.154;10.570;2023-07-29T08:05:55;20.30;99.90
21312;DHT22;18076;52.154;10.570;2023-07-29T08:08:20;20.30;99.90
21312;DHT22;18076;52.154;10.570;2023-07-29T08:10:46;20.40;99.90
21312;DHT22;18076;52.154;10.570;2023-07-29T08:13:11;20.40;99.90
21312;DHT22;18076;52.154;10.570;2023-07-29T08:15:37;20.50;99.90
21312;DHT22;18076;52.154;10.570;2023-07-29T08:18:02;20.60;99.90
21312;DHT22;18076;52.154;10.570;2023-07-29T08:20:28;20.70;99.90
21312;DHT22;18076;52.154;10.570;2023-07-29T08:22:53;20.70;99.90
21312;DHT22;18076;52.154;10.570;2023-07-29T08:25:19;20.60;99.90
21312;DHT22;18076;52.154;10.570;2023-07-29T08:27:45;20.60;99.90
21312;DHT22;18076;52.154;10.570;2023-07-29T08:30:10;20.70;99.90
21312;DHT22;18076;52.154;10.570;2023-07-29T08:32:36;20.80;99.90
21312;DHT22;18076;52.154;10.570;2023-07-29T08:35:01;20.80;99.90
21312;DHT22;18076;52.154;10.570;2023-07-29T08:37:27;20.80;99.90
21312;DHT22;18076;52.154;10.570;2023-07-29T08:39:52;20.80;99.90
21312;DHT22;18076;52.154;10.570;2023-07-29T08:42:19;21.10;99.90
21312;DHT22;18076;52.154;10.570;2023-07-29T08:44:45;21.10;99.90
21312;DHT22;18076;52.154;10.570;2023-07-29T08:47:10;21.30;99.90
21312;DHT22;18076;52.154;10.570;2023-07-29T08:49:37;21.60;99.90
21312;DHT22;18076;52.154;10.570;2023-07-29T08:52:03;21.60;99.90
21312;DHT22;18076;52.154;10.570;2023-07-29T08:54:29;21.50;99.90
21312;DHT22;18076;52.154;10.570;2023-07-29T08:56:55;21.50;99.90
21312;DHT22;18076;52.154;10.570;2023-07-29T08:59:21;21.40;99.90
21312;DHT22;18076;52.154;10.570;2023-07-29T09:01:50;21.30;99.90
21312;DHT22;18076;52.154;10.570;2023-07-29T09:04:15;21.20;99.90
21312;DHT22;18076;52.154;10.570;2023-07-29T09:06:41;21.10;99.90
21312;DHT22;18076;52.154;10.570;2023-07-29T09:09:08;21.00;99.90
21312;DHT22;18076;52.154;10.570;2023-07-29T09:11:37;21.00;99.90
21312;DHT22;18076;52.154;10.570;2023-07-29T09:14:06;20.90;99.90
21312;DHT22;18076;52.154;10.570;2023-07-29T09:16:32;21.00;99.90
21312;DHT22;18076;52.154;10.570;2023-07-29T09:19:00;21.20;99.90
21312;DHT22;18076;52.154;10.570;2023-07-29T09:21:26;21.20;99.90
21312;DHT22;18076;52.154;10.570;2023-07-29T09:23:54;21.20;99.90
21312;DHT22;18076;52.154;10.570;2023-07-29T09:26:26;21.20;99.90
21312;DHT22;18076;52.154;10.570;2023-07-29T09:28:55;21.20;99.90
21312;DHT22;18076;52.154;10.570;2023-07-29T09:31:22;21.20;99.90
21312;DHT22;18076;52.154;10.570;2023-07-29T09:33:48;21.20;99.90
21312;DHT22;18076;52.154;10.570;2023-07-29T09:36:14;21.10;99.90
21312;DHT22;18076;52.154;10.570;2023-07-29T09:38:40;21.10;99.90
21312;DHT22;18076;52.154;10.570;2023-07-29T09:41:06;21.00;99.90
21312;DHT22;18076;52.154;10.570;2023-07-29T09:43:32;21.00;99.90
21312;DHT22;18076;52.154;10.570;2023-07-29T09:46:01;21.20;99.90
21312;DHT22;18076;52.154;10.570;2023-07-29T09:48:27;21.20;99.90
21312;DHT22;18076;52.154;10.570;2023-07-29T09:50:54;21.20;99.90
21312;DHT22;18076;52.154;10.570;2023-07-29T09:53:21;21.20;99.90
21312;DHT22;18076;52.154;10.570;2023-07-29T09:55:47;21.20;99.90
21312;DHT22;18076;52.154;10.570;2023-07-29T09:58:13;21.20;99.90
21312;DHT22;18076;52.154;10.570;2023-07-29T10:00:41;21.20;99.90
21312;DHT22;18076;52.154;10.570;2023-07-29T10:03:07;21.10;99.90
21312;DHT22;18076;52.154;10.570;2023-07-29T10:05:32;21.30;99.90
21312;DHT22;18076;52.154;10.570;2023-07-29T10:08:00;21.40;99.90
21312;DHT22;18076;52.154;10.570;2023-07-29T10:10:25;21.40;99.90
21312;DHT22;18076;52.154;10.570;2023-07-29T10:12:51;21.50;99.90
21312;DHT22;18076;52.154;10.570;2023-07-29T10:15:17;21.70;99.90
21312;DHT22;18076;52.154;10.570;2023-07-29T10:17:42;21.80;99.90
21312;DHT22;18076;52.154;10.570;2023-07-29T10:20:08;21.90;99.90
21312;DHT22;18076;52.154;10.570;2023-07-29T10:22:38;22.20;99.90
21312;DHT22;18076;52.154;10.570;2023-07-29T10:25:05;22.50;99.90
21312;DHT22;18076;52.154;10.570;2023-07-29T10:27:39;22.60;99.90
21312;DHT22;18076;52.154;10.570;2023-07-29T10:30:07;22.50;99.90
21312;DHT22;18076;52.154;10.570;2023-07-29T10:32:33;22.30;99.90
21312;DHT22;18076;52.154;10.570;2023-07-29T10:34:59;22.30;99.90
21312;DHT22;18076;52.154;10.570;2023-07-29T10:37:24;22.40;99.90
21312;DHT22;18076;52.154;10.570;2023-07-29T10:39:56;22.60;99.90
21312;DHT22;18076;52.154;10.570;2023-07-29T10:42:22;22.70;99.90
21312;DHT22;18076;52.154;10.570;2023-07-29T10:44:48;22.90;99.90
21312;DHT22;18076;52.154;10.570;2023-07-29T10:47:15;22.90;99.90
21312;DHT22;18076;52.154;10.570;2023-07-29T10:49:41;22.80;99.90
21312;DHT22;18076;52.154;10.570;2023-07-29T10:52:07;22.80;99.90
21312;DHT22;18076;52.154;10.570;2023-07-29T10:54:46;22.80;99.90
21312;DHT22;18076;52.154;10.570;2023-07-29T10:57:13;23.00;99.90
21312;DHT22;18076;52.154;10.570;2023-07-29T10:59:39;23.10;99.90
21312;DHT22;18076;52.154;10.570;2023-07-29T11:02:11;23.30;99.90
21312;DHT22;18076;52.154;10.570;2023-07-29T11:04:45;23.60;99.90
21312;DHT22;18076;52.154;10.570;2023-07-29T11:09:40;24.80;99.90
21312;DHT22;18076;52.154;10.570;2023-07-29T11:14:51;25.90;99.90
21312;DHT22;18076;52.154;10.570;2023-07-29T11:17:17;26.10;99.90
21312;DHT22;18076;52.154;10.570;2023-07-29T11:19:43;26.20;99.90
21312;DHT22;18076;52.154;10.570;2023-07-29T11:22:09;25.50;99.90
21312;DHT22;18076;52.154;10.570;2023-07-29T11:24:34;25.00;99.90
21312;DHT22;18076;52.154;10.570;2023-07-29T11:27:00;24.40;99.90
21312;DHT22;18076;52.154;10.570;2023-07-29T11:29:25;23.90;99.90
21312;DHT22;18076;52.154;10.570;2023-07-29T11:31:52;23.50;99.90
21312;DHT22;18076;52.154;10.570;2023-07-29T11:34:18;23.20;99.90
21312;DHT22;18076;52.154;10.570;2023-07-29T11:36:46;23.10;99.90
21312;DHT22;18076;52.154;10.570;2023-07-29T11:39:11;23.00;99.90
21312;DHT22;18076;52.154;10.570;2023-07-29T11:41:37;23.30;99.90
21312;DHT22;18076;52.154;10.570;2023-07-29T11:44:02;23.60;99.90
21312;DHT22;18076;52.154;10.570;2023-07-29T11:46:28;23.70;99.90
21312;DHT22;18076;52.154;10.570;2023-07-29T11:48:54;23.90;99.90
21312;DHT22;18076;52.154;10.570;2023-07-29T11:51:20;24.10;99.90
21312;DHT22;18076;52.154;10.570;2023-07-29T11:53:46;24.60;99.90
21312;DHT22;18076;52.154;10.570;2023-07-29T11:56:12;25.20;99.90
21312;DHT22;18076;52.154;10.570;2023-07-29T11:58:42;25.50;99.90
21312;DHT22;18076;52.154;10.570;2023-07-29T12:01:08;25.40;99.90
21312;DHT22;18076;52.154;10.570;2023-07-29T12:03:35;25.40;99.90
21312;DHT22;18076;52.154;10.570;2023-07-29T12:06:00;25.30;99.90
21312;DHT22;18076;52.154;10.570;2023-07-29T12:08:26;25.20;99.90
21312;DHT22;18076;52.154;10.570;2023-07-29T12:10:52;24.90;99.90
21312;DHT22;18076;52.154;10.570;2023-07-29T12:13:18;25.20;99.90
21312;DHT22;18076;52.154;10.570;2023-07-29T12:15:44;25.40;99.90
21312;DHT22;18076;52.154;10.570;2023-07-29T12:18:09;25.50;99.90
21312;DHT22;18076;52.154;10.570;2023-07-29T12:20:35;25.60;99.90
21312;DHT22;18076;52.154;10.570;2023-07-29T12:23:00;25.60;99.90
21312;DHT22;18076;52.154;10.570;2023-07-29T12:25:31;25.80;99.90
21312;DHT22;18076;52.154;10.570;2023-07-29T12:27:56;25.70;99.90
21312;DHT22;18076;52.154;10.570;2023-07-29T12:30:26;25.30;99.90
21312;DHT22;18076;52.154;10.570;2023-07-29T12:32:53;25.20;99.90
21312;DHT22;18076;52.154;10.570;2023-07-29T12:35:19;25.10;99.90
21312;DHT22;18076;52.154;10.570;2023-07-29T12:37:45;24.90;99.90
21312;DHT22;18076;52.154;10.570;2023-07-29T12:40:23;24.90;99.90
21312;DHT22;18076;52.154;10.570;2023-07-29T12:42:56;24.70;99.90
21312;DHT22;18076;52.154;10.570;2023-07-29T12:45:46;24.50;99.90
21312;DHT22;18076;52.154;10.570;2023-07-29T12:48:13;24.50;99.90
21312;DHT22;18076;52.154;10.570;2023-07-29T12:50:39;24.30;99.90
21312;DHT22;18076;52.154;10.570;2023-07-29T12:53:04;24.40;99.90
21312;DHT22;18076;52.154;10.570;2023-07-29T12:55:30;24.30;99.90
21312;DHT22;18076;52.154;10.570;2023-07-29T12:57:56;24.50;99.90
21312;DHT22;18076;52.154;10.570;2023-07-29T13:00:23;24.50;99.90
21312;DHT22;18076;52.154;10.570;2023-07-29T13:02:49;24.50;99.90
21312;DHT22;18076;52.154;10.570;2023-07-29T13:05:14;24.60;99.90
21312;DHT22;18076;52.154;10.570;2023-07-29T13:07:43;24.90;99.90
21312;DHT22;18076;52.154;10.570;2023-07-29T13:10:09;25.40;99.90
21312;DHT22;18076;52.154;10.570;2023-07-29T13:12:35;25.90;99.90
21312;DHT22;18076;52.154;10.570;2023-07-29T13:15:01;25.90;99.90
21312;DHT22;18076;52.154;10.570;2023-07-29T13:17:27;26.00;99.90
21312;DHT22;18076;52.154;10.570;2023-07-29T13:19:52;25.60;99.90
21312;DHT22;18076;52.154;10.570;2023-07-29T13:22:19;25.10;99.90
21312;DHT22;18076;52.154;10.570;2023-07-29T13:24:45;24.80;99.90
21312;DHT22;18076;52.154;10.570;2023-07-29T13:27:11;24.40;99.90
21312;DHT22;18076;52.154;10.570;2023-07-29T13:29:36;24.50;99.90
21312;DHT22;18076;52.154;10.570;2023-07-29T13:32:02;24.90;99.90
21312;DHT22;18076;52.154;10.570;2023-07-29T13:34:27;25.20;99.90
21312;DHT22;18076;52.154;10.570;2023-07-29T13:36:53;25.40;99.90
21312;DHT22;18076;52.154;10.570;2023-07-29T13:39:18;25.20;99.90
21312;DHT22;18076;52.154;10.570;2023-07-29T13:41:44;24.80;99.90
21312;DHT22;18076;52.154;10.570;2023-07-29T13:44:10;24.50;99.90
21312;DHT22;18076;52.154;10.570;2023-07-29T13:46:35;24.60;99.90
21312;DHT22;18076;52.154;10.570;2023-07-29T13:49:01;24.90;99.90
21312;DHT22;18076;52.154;10.570;2023-07-29T13:51:27;25.30;99.90
21312;DHT22;18076;52.154;10.570;2023-07-29T13:53:52;25.60;99.90
21312;DHT22;18076;52.154;10.570;2023-07-29T13:56:18;25.60;99.90
21312;DHT22;18076;52.154;10.570;2023-07-29T13:58:43;25.80;99.90
21312;DHT22;18076;52.154;10.570;2023-07-29T14:01:09;25.90;99.90
21312;DHT22;18076;52.154;10.570;2023-07-29T14:03:36;26.00;99.90
21312;DHT22;18076;52.154;10.570;2023-07-29T14:06:02;25.70;99.90
21312;DHT22;18076;52.154;10.570;2023-07-29T14:08:27;25.50;99.90
21312;DHT22;18076;52.154;10.570;2023-07-29T14:10:53;25.70;99.90
21312;DHT22;18076;52.154;10.570;2023-07-29T14:13:18;26.00;99.90
21312;DHT22;18076;52.154;10.570;2023-07-29T14:15:44;26.30;99.90
21312;DHT22;18076;52.154;10.570;2023-07-29T14:18:11;26.10;99.90
21312;DHT22;18076;52.154;10.570;2023-07-29T14:20:36;26.20;99.90
21312;DHT22;18076;52.154;10.570;2023-07-29T14:23:02;26.40;99.90
21312;DHT22;18076;52.154;10.570;2023-07-29T14:25:27;26.60;99.90
21312;DHT22;18076;52.154;10.570;2023-07-29T14:27:53;26.70;99.90
21312;DHT22;18076;52.154;10.570;2023-07-29T14:30:18;26.80;99.90
21312;DHT22;18076;52.154;10.570;2023-07-29T14:32:44;26.80;99.90
21312;DHT22;18076;52.154;10.570;2023-07-29T14:35:09;26.50;99.90
21312;DHT22;18076;52.154;10.570;2023-07-29T14:37:35;26.40;99.90
21312;DHT22;18076;52.154;10.570;2023-07-29T14:40:01;26.60;99.90
21312;DHT22;18076;52.154;10.570;2023-07-29T14:42:28;26.70;99.90
21312;DHT22;18076;52.154;10.570;2023-07-29T14:44:53;26.80;99.90
21312;DHT22;18076;52.154;10.570;2023-07-29T14:47:19;26.80;99.90
21312;DHT22;18076;52.154;10.570;2023-07-29T14:49:45;26.80;99.90
21312;DHT22;18076;52.154;10.570;2023-07-29T14:52:10;26.70;99.90
21312;DHT22;18076;52.154;10.570;2023-07-29T14:54:36;26.50;99.90
21312;DHT22;18076;52.154;10.570;2023-07-29T14:57:01;26.50;99.90
21312;DHT22;18076;52.154;10.570;2023-07-29T14:59:27;26.40;99.90
21312;DHT22;18076;52.154;10.570;2023-07-29T15:01:53;26.50;99.90
21312;DHT22;18076;52.154;10.570;2023-07-29T15:04:18;26.50;99.90
21312;DHT22;18076;52.154;10.570;2023-07-29T15:06:45;26.40;99.90
21312;DHT22;18076;52.154;10.570;2023-07-29T15:09:10;26.00;99.90
21312;DHT22;18076;52.154;10.570;2023-07-29T15:11:36;25.90;99.90
21312;DHT22;18076;52.154;10.570;2023-07-29T15:14:02;25.90;99.90
21312;DHT22;18076;52.154;10.570;2023-07-29T15:16:28;26.00;99.90